Tabor, Czech Republic
Current Conditions -  °F | °C
As of 1:00 PM on Sunday 23 Nov 2014 (Local Time) from LKCV Reporting Station
Broken Clouds Broken Clouds  
Wind Chill: 40°   Ceiling: 1700
Heat Index: 45°   Visibility: 6mi
Dew Point: 39°   Wind: 9mph
Humidity: 81%   Direction: 140°SE
Pressure: 30.36"   Gusts: NA
Location:  49.42°N, 14.66°E
Report Text: LKCV 231100Z 14008KT 9999 BKN017 07/04 Q1028 NOSIG
Loading
Personal Weather Stations






























Interactive Weather Map New forecast layout! Learn more

10-Day Weather Forecast

Advertisements
Track Severe Weather on mobile